sensor_id;sensor_type;location;lat;lon;timestamp;pressure;altitude;pressure_sealevel;temperature;humidity
77110;BME280;66062;52.464;16.922;2023-03-03T00:00:23;101176.84;;;-0.75;100.00
77110;BME280;66062;52.464;16.922;2023-03-03T00:02:48;101184.84;;;-0.78;100.00
77110;BME280;66062;52.464;16.922;2023-03-03T00:05:14;101181.34;;;-0.79;100.00
77110;BME280;66062;52.464;16.922;2023-03-03T00:07:44;101176.75;;;-0.72;100.00
77110;BME280;66062;52.464;16.922;2023-03-03T00:10:12;101174.19;;;-0.74;100.00
77110;BME280;66062;52.464;16.922;2023-03-03T00:12:44;101172.28;;;-0.94;100.00
77110;BME280;66062;52.464;16.922;2023-03-03T00:15:21;101172.84;;;-0.86;100.00
77110;BME280;66062;52.464;16.922;2023-03-03T00:17:47;101164.88;;;-0.82;100.00
77110;BME280;66062;52.464;16.922;2023-03-03T00:22:53;101157.38;;;-0.92;100.00
77110;BME280;66062;52.464;16.922;2023-03-03T00:27:45;101167.16;;;-0.97;100.00
77110;BME280;66062;52.464;16.922;2023-03-03T00:30:19;101168.63;;;-1.14;100.00
77110;BME280;66062;52.464;16.922;2023-03-03T00:32:47;101165.47;;;-1.24;100.00
77110;BME280;66062;52.464;16.922;2023-03-03T00:35:37;101156.75;;;-1.24;100.00
77110;BME280;66062;52.464;16.922;2023-03-03T00:38:16;101167.53;;;-1.34;100.00
77110;BME280;66062;52.464;16.922;2023-03-03T00:40:42;101160.00;;;-1.43;100.00
77110;BME280;66062;52.464;16.922;2023-03-03T00:43:23;101160.22;;;-1.50;100.00
77110;BME280;66062;52.464;16.922;2023-03-03T00:45:54;101163.38;;;-1.39;100.00
77110;BME280;66062;52.464;16.922;2023-03-03T00:48:25;101170.19;;;-1.35;100.00
77110;BME280;66062;52.464;16.922;2023-03-03T00:50:57;101163.03;;;-1.30;100.00
77110;BME280;66062;52.464;16.922;2023-03-03T00:53:27;101155.72;;;-1.20;100.00
77110;BME280;66062;52.464;16.922;2023-03-03T00:55:53;101157.19;;;-1.12;100.00
77110;BME280;66062;52.464;16.922;2023-03-03T00:58:20;101151.63;;;-1.03;100.00
77110;BME280;66062;52.464;16.922;2023-03-03T01:00:47;101141.00;;;-1.23;100.00
77110;BME280;66062;52.464;16.922;2023-03-03T01:03:19;101148.84;;;-1.23;100.00
77110;BME280;66062;52.464;16.922;2023-03-03T01:05:46;101149.78;;;-1.25;100.00
77110;BME280;66062;52.464;16.922;2023-03-03T01:08:11;101150.81;;;-1.30;100.00
77110;BME280;66062;52.464;16.922;2023-03-03T01:10:44;101153.47;;;-1.31;100.00
77110;BME280;66062;52.464;16.922;2023-03-03T01:13:10;101140.78;;;-1.17;100.00
77110;BME280;66062;52.464;16.922;2023-03-03T01:15:38;101149.38;;;-1.13;100.00
77110;BME280;66062;52.464;16.922;2023-03-03T01:18:03;101135.75;;;-1.23;100.00
77110;BME280;66062;52.464;16.922;2023-03-03T01:20:29;101147.28;;;-1.28;100.00
77110;BME280;66062;52.464;16.922;2023-03-03T01:22:54;101134.09;;;-1.25;100.00
77110;BME280;66062;52.464;16.922;2023-03-03T01:25:20;101129.72;;;-1.25;100.00
77110;BME280;66062;52.464;16.922;2023-03-03T01:27:45;101137.72;;;-1.30;100.00
77110;BME280;66062;52.464;16.922;2023-03-03T01:30:12;101140.84;;;-1.45;100.00
77110;BME280;66062;52.464;16.922;2023-03-03T01:32:38;101130.44;;;-1.46;100.00
77110;BME280;66062;52.464;16.922;2023-03-03T01:35:04;101131.66;;;-1.56;100.00
77110;BME280;66062;52.464;16.922;2023-03-03T01:37:29;101123.09;;;-1.61;100.00
77110;BME280;66062;52.464;16.922;2023-03-03T01:39:55;101121.38;;;-1.62;100.00
77110;BME280;66062;52.464;16.922;2023-03-03T01:42:21;101120.38;;;-1.58;100.00
77110;BME280;66062;52.464;16.922;2023-03-03T01:44:46;101112.28;;;-1.51;100.00
77110;BME280;66062;52.464;16.922;2023-03-03T01:47:24;101111.53;;;-1.54;100.00
77110;BME280;66062;52.464;16.922;2023-03-03T01:49:55;101108.28;;;-1.62;100.00
77110;BME280;66062;52.464;16.922;2023-03-03T01:52:26;101102.69;;;-1.52;100.00
77110;BME280;66062;52.464;16.922;2023-03-03T01:54:59;101100.91;;;-1.50;100.00
77110;BME280;66062;52.464;16.922;2023-03-03T01:57:33;101109.94;;;-1.58;100.00
77110;BME280;66062;52.464;16.922;2023-03-03T02:00:01;101107.19;;;-1.55;100.00
77110;BME280;66062;52.464;16.922;2023-03-03T02:02:27;101106.69;;;-1.66;100.00
77110;BME280;66062;52.464;16.922;2023-03-03T02:04:54;101110.28;;;-1.69;100.00
77110;BME280;66062;52.464;16.922;2023-03-03T02:07:21;101092.81;;;-1.68;100.00
77110;BME280;66062;52.464;16.922;2023-03-03T02:10:07;101118.00;;;-1.66;100.00
77110;BME280;66062;52.464;16.922;2023-03-03T02:12:38;101122.00;;;-1.54;100.00
77110;BME280;66062;52.464;16.922;2023-03-03T02:15:18;101128.13;;;-1.55;100.00
77110;BME280;66062;52.464;16.922;2023-03-03T02:17:44;101137.38;;;-1.72;100.00
77110;BME280;66062;52.464;16.922;2023-03-03T02:20:16;101131.94;;;-1.65;100.00
77110;BME280;66062;52.464;16.922;2023-03-03T02:23:08;101130.94;;;-1.61;100.00
77110;BME280;66062;52.464;16.922;2023-03-03T02:25:48;101130.03;;;-1.60;100.00
77110;BME280;66062;52.464;16.922;2023-03-03T02:28:16;101114.03;;;-1.51;100.00
77110;BME280;66062;52.464;16.922;2023-03-03T02:30:42;101124.56;;;-1.53;100.00
77110;BME280;66062;52.464;16.922;2023-03-03T02:33:08;101126.22;;;-1.50;100.00
77110;BME280;66062;52.464;16.922;2023-03-03T02:35:37;101125.47;;;-1.54;100.00
77110;BME280;66062;52.464;16.922;2023-03-03T02:40:35;101141.53;;;-1.64;100.00
77110;BME280;66062;52.464;16.922;2023-03-03T02:43:03;101153.34;;;-1.79;100.00
77110;BME280;66062;52.464;16.922;2023-03-03T02:45:29;101147.31;;;-1.83;100.00
77110;BME280;66062;52.464;16.922;2023-03-03T02:47:54;101137.31;;;-1.68;100.00
77110;BME280;66062;52.464;16.922;2023-03-03T02:50:20;101143.63;;;-1.76;100.00
77110;BME280;66062;52.464;16.922;2023-03-03T02:52:45;101133.16;;;-1.76;100.00
77110;BME280;66062;52.464;16.922;2023-03-03T02:55:11;101130.19;;;-1.65;100.00
77110;BME280;66062;52.464;16.922;2023-03-03T02:57:36;101122.50;;;-1.69;100.00
77110;BME280;66062;52.464;16.922;2023-03-03T03:00:02;101122.31;;;-1.63;100.00
77110;BME280;66062;52.464;16.922;2023-03-03T03:02:27;101131.94;;;-1.65;100.00
77110;BME280;66062;52.464;16.922;2023-03-03T03:04:53;101138.28;;;-1.73;100.00
77110;BME280;66062;52.464;16.922;2023-03-03T03:07:18;101137.31;;;-1.68;100.00
77110;BME280;66062;52.464;16.922;2023-03-03T03:09:44;101130.84;;;-1.58;100.00
77110;BME280;66062;52.464;16.922;2023-03-03T03:12:09;101132.78;;;-1.63;100.00
77110;BME280;66062;52.464;16.922;2023-03-03T03:14:35;101130.84;;;-1.58;100.00
77110;BME280;66062;52.464;16.922;2023-03-03T03:17:01;101126.56;;;-1.61;100.00
77110;BME280;66062;52.464;16.922;2023-03-03T03:19:26;101119.84;;;-1.68;100.00
77110;BME280;66062;52.464;16.922;2023-03-03T03:21:52;101121.69;;;-1.72;100.00
77110;BME280;66062;52.464;16.922;2023-03-03T03:24:17;101108.59;;;-1.72;100.00
77110;BME280;66062;52.464;16.922;2023-03-03T03:26:43;101114.47;;;-1.63;100.00
77110;BME280;66062;52.464;16.922;2023-03-03T03:29:08;101114.34;;;-1.60;100.00
77110;BME280;66062;52.464;16.922;2023-03-03T03:31:35;101116.75;;;-1.54;100.00
77110;BME280;66062;52.464;16.922;2023-03-03T03:34:00;101112.47;;;-1.57;100.00
77110;BME280;66062;52.464;16.922;2023-03-03T03:36:26;101109.66;;;-1.77;100.00
77110;BME280;66062;52.464;16.922;2023-03-03T03:38:52;101122.81;;;-1.79;100.00
77110;BME280;66062;52.464;16.922;2023-03-03T03:41:18;101105.41;;;-1.80;100.00
77110;BME280;66062;52.464;16.922;2023-03-03T03:43:43;101107.16;;;-1.80;100.00
77110;BME280;66062;52.464;16.922;2023-03-03T03:46:08;101104.50;;;-1.79;100.00
77110;BME280;66062;52.464;16.922;2023-03-03T03:48:34;101106.59;;;-1.63;100.00
77110;BME280;66062;52.464;16.922;2023-03-03T03:51:00;101102.06;;;-1.58;100.00
77110;BME280;66062;52.464;16.922;2023-03-03T03:53:25;101107.19;;;-1.82;100.00
77110;BME280;66062;52.464;16.922;2023-03-03T03:55:51;101097.59;;;-1.81;100.00
77110;BME280;66062;52.464;16.922;2023-03-03T03:58:17;101107.97;;;-1.78;100.00
77110;BME280;66062;52.464;16.922;2023-03-03T04:00:44;101104.75;;;-1.88;100.00
77110;BME280;66062;52.464;16.922;2023-03-03T04:03:10;101088.94;;;-1.83;100.00
77110;BME280;66062;52.464;16.922;2023-03-03T04:05:36;101097.75;;;-1.86;100.00
77110;BME280;66062;52.464;16.922;2023-03-03T04:08:02;101095.47;;;-1.70;100.00
77110;BME280;66062;52.464;16.922;2023-03-03T04:10:28;101095.28;;;-1.64;100.00
77110;BME280;66062;52.464;16.922;2023-03-03T04:12:53;101092.28;;;-1.78;100.00
77110;BME280;66062;52.464;16.922;2023-03-03T04:15:19;101092.00;;;-1.70;100.00
77110;BME280;66062;52.464;16.922;2023-03-03T04:17:44;101088.56;;;-1.73;100.00
77110;BME280;66062;52.464;16.922;2023-03-03T04:20:12;101092.81;;;-1.68;100.00
77110;BME280;66062;52.464;16.922;2023-03-03T04:22:37;101082.94;;;-1.60;100.00
77110;BME280;66062;52.464;16.922;2023-03-03T04:25:03;101076.84;;;-1.61;100.00
77110;BME280;66062;52.464;16.922;2023-03-03T04:27:33;101078.38;;;-1.54;100.00
77110;BME280;66062;52.464;16.922;2023-03-03T04:29:59;101077.34;;;-1.50;100.00
77110;BME280;66062;52.464;16.922;2023-03-03T04:32:25;101073.19;;;-1.55;100.00
77110;BME280;66062;52.464;16.922;2023-03-03T04:34:50;101059.19;;;-1.54;100.00
77110;BME280;66062;52.464;16.922;2023-03-03T04:37:15;101068.41;;;-1.69;100.00
77110;BME280;66062;52.464;16.922;2023-03-03T04:39:41;101073.56;;;-1.67;100.00
77110;BME280;66062;52.464;16.922;2023-03-03T04:42:06;101069.31;;;-1.70;100.00
77110;BME280;66062;52.464;16.922;2023-03-03T04:44:32;101075.25;;;-1.65;100.00
77110;BME280;66062;52.464;16.922;2023-03-03T04:46:57;101070.00;;;-1.65;100.00
77110;BME280;66062;52.464;16.922;2023-03-03T04:49:23;101071.56;;;-1.59;100.00
77110;BME280;66062;52.464;16.922;2023-03-03T04:51:48;101069.66;;;-1.54;100.00
77110;BME280;66062;52.464;16.922;2023-03-03T04:54:14;101087.06;;;-1.53;100.00
77110;BME280;66062;52.464;16.922;2023-03-03T04:56:39;101084.22;;;-1.47;100.00
77110;BME280;66062;52.464;16.922;2023-03-03T04:59:05;101082.56;;;-1.75;100.00
77110;BME280;66062;52.464;16.922;2023-03-03T05:01:30;101087.81;;;-1.76;100.00
77110;BME280;66062;52.464;16.922;2023-03-03T05:03:55;101074.50;;;-1.68;100.00
77110;BME280;66062;52.464;16.922;2023-03-03T05:06:21;101086.88;;;-1.74;100.00
77110;BME280;66062;52.464;16.922;2023-03-03T05:08:46;101075.22;;;-1.90;100.00
77110;BME280;66062;52.464;16.922;2023-03-03T05:11:12;101081.03;;;-1.82;100.00
77110;BME280;66062;52.464;16.922;2023-03-03T05:13:38;101070.69;;;-1.85;100.00
77110;BME280;66062;52.464;16.922;2023-03-03T05:16:04;101067.38;;;-1.90;100.00
77110;BME280;66062;52.464;16.922;2023-03-03T05:18:29;101062.13;;;-1.90;100.00
77110;BME280;66062;52.464;16.922;2023-03-03T05:20:55;101060.66;;;-1.72;100.00
77110;BME280;66062;52.464;16.922;2023-03-03T05:23:21;101056.25;;;-1.70;100.00
77110;BME280;66062;52.464;16.922;2023-03-03T05:25:48;101066.81;;;-1.73;100.00
77110;BME280;66062;52.464;16.922;2023-03-03T05:28:13;101070.41;;;-1.77;100.00
77110;BME280;66062;52.464;16.922;2023-03-03T05:30:39;101079.66;;;-1.67;100.00
77110;BME280;66062;52.464;16.922;2023-03-03T05:33:05;101078.50;;;-1.83;100.00
77110;BME280;66062;52.464;16.922;2023-03-03T05:35:31;101080.88;;;-1.77;100.00
77110;BME280;66062;52.464;16.922;2023-03-03T05:37:57;101083.81;;;-1.86;100.00
77110;BME280;66062;52.464;16.922;2023-03-03T05:40:26;101083.91;;;-1.89;100.00
77110;BME280;66062;52.464;16.922;2023-03-03T05:42:51;101099.50;;;-1.86;100.00
77110;BME280;66062;52.464;16.922;2023-03-03T05:45:18;101097.78;;;-1.87;100.00
77110;BME280;66062;52.464;16.922;2023-03-03T05:47:46;101109.78;;;-1.80;100.00
77110;BME280;66062;52.464;16.922;2023-03-03T05:50:11;101119.22;;;-1.76;100.00
77110;BME280;66062;52.464;16.922;2023-03-03T05:52:37;101116.53;;;-1.73;100.00
77110;BME280;66062;52.464;16.922;2023-03-03T05:55:03;101127.81;;;-1.73;100.00
77110;BME280;66062;52.464;16.922;2023-03-03T05:57:29;101129.66;;;-1.75;100.00
77110;BME280;66062;52.464;16.922;2023-03-03T05:59:55;101136.59;;;-1.74;100.00
77110;BME280;66062;52.464;16.922;2023-03-03T06:02:20;101120.19;;;-1.79;100.00
77110;BME280;66062;52.464;16.922;2023-03-03T06:04:45;101099.84;;;-1.70;100.00
77110;BME280;66062;52.464;16.922;2023-03-03T06:07:11;101101.53;;;-1.68;100.00
77110;BME280;66062;52.464;16.922;2023-03-03T06:09:36;101097.44;;;-1.50;100.00
77110;BME280;66062;52.464;16.922;2023-03-03T06:12:02;101087.97;;;-1.54;100.00
77110;BME280;66062;52.464;16.922;2023-03-03T06:14:27;101097.19;;;-1.69;100.00
77110;BME280;66062;52.464;16.922;2023-03-03T06:16:53;101105.63;;;-1.61;100.00
77110;BME280;66062;52.464;16.922;2023-03-03T06:19:18;101106.50;;;-1.60;100.00
77110;BME280;66062;52.464;16.922;2023-03-03T06:21:44;101107.16;;;-1.80;100.00
77110;BME280;66062;52.464;16.922;2023-03-03T06:24:10;101106.28;;;-1.81;100.00
77110;BME280;66062;52.464;16.922;2023-03-03T06:26:36;101102.97;;;-1.86;100.00
77110;BME280;66062;52.464;16.922;2023-03-03T06:29:02;101117.34;;;-1.73;100.00
77110;BME280;66062;52.464;16.922;2023-03-03T06:31:27;101123.72;;;-1.80;100.00
77110;BME280;66062;52.464;16.922;2023-03-03T06:33:53;101124.38;;;-1.73;100.00
77110;BME280;66062;52.464;16.922;2023-03-03T06:36:19;101124.91;;;-1.63;100.00
77110;BME280;66062;52.464;16.922;2023-03-03T06:38:44;101121.75;;;-1.73;100.00
77110;BME280;66062;52.464;16.922;2023-03-03T06:41:10;101117.00;;;-1.62;100.00
77110;BME280;66062;52.464;16.922;2023-03-03T06:43:36;101128.53;;;-1.67;100.00
77110;BME280;66062;52.464;16.922;2023-03-03T06:46:03;101125.97;;;-1.69;100.00
77110;BME280;66062;52.464;16.922;2023-03-03T06:48:29;101117.34;;;-1.46;100.00
77110;BME280;66062;52.464;16.922;2023-03-03T06:50:55;101120.63;;;-1.40;100.00
77110;BME280;66062;52.464;16.922;2023-03-03T06:53:20;101117.09;;;-1.39;100.00
77110;BME280;66062;52.464;16.922;2023-03-03T06:55:46;101118.75;;;-1.36;100.00
77110;BME280;66062;52.464;16.922;2023-03-03T06:58:20;101124.13;;;-1.41;100.00
77110;BME280;66062;52.464;16.922;2023-03-03T07:01:12;101120.03;;;-1.48;100.00
77110;BME280;66062;52.464;16.922;2023-03-03T07:03:39;101113.66;;;-1.41;100.00
77110;BME280;66062;52.464;16.922;2023-03-03T07:08:46;101116.41;;;-1.44;100.00
77110;BME280;66062;52.464;16.922;2023-03-03T07:11:15;101120.34;;;-1.32;100.00
77110;BME280;66062;52.464;16.922;2023-03-03T07:13:47;101112.66;;;-1.37;100.00
77110;BME280;66062;52.464;16.922;2023-03-03T07:16:13;101123.81;;;-1.32;100.00
77110;BME280;66062;52.464;16.922;2023-03-03T07:18:56;101132.00;;;-1.41;100.00
77110;BME280;66062;52.464;16.922;2023-03-03T07:21:29;101130.59;;;-1.26;100.00
77110;BME280;66062;52.464;16.922;2023-03-03T07:23:56;101130.91;;;-1.09;100.00
77110;BME280;66062;52.464;16.922;2023-03-03T07:26:26;101136.78;;;-1.27;100.00
77110;BME280;66062;52.464;16.922;2023-03-03T07:28:57;101131.94;;;-1.39;100.00
77110;BME280;66062;52.464;16.922;2023-03-03T07:31:34;101127.56;;;-1.39;100.00
77110;BME280;66062;52.464;16.922;2023-03-03T07:34:09;101135.84;;;-1.26;100.00
77110;BME280;66062;52.464;16.922;2023-03-03T07:36:39;101138.47;;;-1.26;100.00
77110;BME280;66062;52.464;16.922;2023-03-03T07:41:49;101155.31;;;-1.08;100.00
77110;BME280;66062;52.464;16.922;2023-03-03T07:44:35;101157.19;;;-1.12;100.00
77110;BME280;66062;52.464;16.922;2023-03-03T07:47:24;101162.66;;;-1.18;100.00
77110;BME280;66062;52.464;16.922;2023-03-03T07:49:52;101155.81;;;-1.22;100.00
77110;BME280;66062;52.464;16.922;2023-03-03T07:52:38;101161.13;;;-1.25;100.00
77110;BME280;66062;52.464;16.922;2023-03-03T07:57:53;101164.59;;;-1.24;100.00
77110;BME280;66062;52.464;16.922;2023-03-03T08:02:57;101162.44;;;-1.12;100.00
77110;BME280;66062;52.464;16.922;2023-03-03T08:05:42;101162.66;;;-0.93;100.00
77110;BME280;66062;52.464;16.922;2023-03-03T08:10:52;101168.22;;;-1.02;100.00
77110;BME280;66062;52.464;16.922;2023-03-03T08:13:21;101162.84;;;-0.99;100.00
77110;BME280;66062;52.464;16.922;2023-03-03T08:15:59;101169.06;;;-1.02;100.00
77110;BME280;66062;52.464;16.922;2023-03-03T08:20:58;101170.47;;;-0.92;100.00
77110;BME280;66062;52.464;16.922;2023-03-03T08:23:23;101169.84;;;-1.00;100.00
77110;BME280;66062;52.464;16.922;2023-03-03T08:25:50;101172.69;;;-1.06;100.00
77110;BME280;66062;52.464;16.922;2023-03-03T08:28:15;101173.34;;;-0.99;100.00
77110;BME280;66062;52.464;16.922;2023-03-03T08:30:42;101176.53;;;-0.91;100.00
77110;BME280;66062;52.464;16.922;2023-03-03T08:33:08;101167.84;;;-0.92;100.00
77110;BME280;66062;52.464;16.922;2023-03-03T08:35:33;101179.63;;;-0.80;100.00
77110;BME280;66062;52.464;16.922;2023-03-03T08:37:59;101173.81;;;-0.63;100.00
77110;BME280;66062;52.464;16.922;2023-03-03T08:40:24;101172.56;;;-0.53;100.00
77110;BME280;66062;52.464;16.922;2023-03-03T08:42:50;101168.44;;;-0.60;100.00
77110;BME280;66062;52.464;16.922;2023-03-03T08:45:15;101168.59;;;-0.65;100.00
77110;BME280;66062;52.464;16.922;2023-03-03T08:47:41;101157.38;;;-0.68;100.00
77110;BME280;66062;52.464;16.922;2023-03-03T08:50:07;101171.41;;;-0.69;100.00
77110;BME280;66062;52.464;16.922;2023-03-03T08:52:33;101158.06;;;-0.63;100.00
77110;BME280;66062;52.464;16.922;2023-03-03T08:54:58;101156.47;;;-0.44;100.00
77110;BME280;66062;52.464;16.922;2023-03-03T08:57:24;101154.88;;;-0.48;100.00
77110;BME280;66062;52.464;16.922;2023-03-03T08:59:49;101151.88;;;-0.37;100.00
77110;BME280;66062;52.464;16.922;2023-03-03T09:02:15;101147.94;;;-0.26;100.00
77110;BME280;66062;52.464;16.922;2023-03-03T09:04:41;101147.72;;;-0.43;100.00
77110;BME280;66062;52.464;16.922;2023-03-03T09:07:07;101153.59;;;-0.36;100.00
77110;BME280;66062;52.464;16.922;2023-03-03T09:09:32;101151.25;;;-0.67;100.00
77110;BME280;66062;52.464;16.922;2023-03-03T09:11:58;101158.41;;;-0.49;100.00
77110;BME280;66062;52.464;16.922;2023-03-03T09:14:28;101168.50;;;-0.38;100.00
77110;BME280;66062;52.464;16.922;2023-03-03T09:16:55;101170.31;;;-0.40;100.00
77110;BME280;66062;52.464;16.922;2023-03-03T09:19:32;101165.41;;;-0.50;100.00
77110;BME280;66062;52.464;16.922;2023-03-03T09:22:17;101169.75;;;-0.49;100.00
77110;BME280;66062;52.464;16.922;2023-03-03T09:24:45;101169.16;;;-0.32;100.00
77110;BME280;66062;52.464;16.922;2023-03-03T09:27:14;101162.63;;;-0.22;100.00
77110;BME280;66062;52.464;16.922;2023-03-03T09:29:41;101162.28;;;-0.13;100.00
77110;BME280;66062;52.464;16.922;2023-03-03T09:32:30;101167.47;;;-0.11;100.00
77110;BME280;66062;52.464;16.922;2023-03-03T09:34:57;101171.88;;;-0.12;100.00
77110;BME280;66062;52.464;16.922;2023-03-03T09:37:35;101168.03;;;-0.03;99.70
77110;BME280;66062;52.464;16.922;2023-03-03T09:43:13;101166.66;;;0.10;99.21
77110;BME280;66062;52.464;16.922;2023-03-03T09:53:48;101145.03;;;0.04;100.00
77110;BME280;66062;52.464;16.922;2023-03-03T09:56:36;101150.75;;;-0.09;100.00
77110;BME280;66062;52.464;16.922;2023-03-03T10:05:04;101155.34;;;0.30;99.68
77110;BME280;66062;52.464;16.922;2023-03-03T10:10:47;101155.94;;;0.36;97.56
77110;BME280;66062;52.464;16.922;2023-03-03T10:19:11;101147.16;;;0.16;99.07
77110;BME280;66062;52.464;16.922;2023-03-03T10:21:48;101141.97;;;0.36;99.28
77110;BME280;66062;52.464;16.922;2023-03-03T10:27:23;101146.53;;;0.53;97.37
77110;BME280;66062;52.464;16.922;2023-03-03T10:32:42;101150.56;;;0.81;96.87
77110;BME280;66062;52.464;16.922;2023-03-03T10:35:22;101150.00;;;0.75;96.60
77110;BME280;66062;52.464;16.922;2023-03-03T10:38:10;101156.88;;;0.77;97.35
77110;BME280;66062;52.464;16.922;2023-03-03T10:49:13;101145.00;;;0.89;94.81
77110;BME280;66062;52.464;16.922;2023-03-03T10:51:57;101151.41;;;1.02;95.49
77110;BME280;66062;52.464;16.922;2023-03-03T11:00:23;101130.47;;;1.01;94.87
77110;BME280;66062;52.464;16.922;2023-03-03T11:06:04;101127.25;;;0.94;94.46
77110;BME280;66062;52.464;16.922;2023-03-03T11:13:56;101118.47;;;0.95;94.86
77110;BME280;66062;52.464;16.922;2023-03-03T11:16:44;101114.41;;;1.07;94.51
77110;BME280;66062;52.464;16.922;2023-03-03T11:22:33;101104.00;;;1.05;96.71
77110;BME280;66062;52.464;16.922;2023-03-03T11:35:34;101105.25;;;0.76;99.58
77110;BME280;66062;52.464;16.922;2023-03-03T11:38:14;101114.53;;;0.65;100.00
77110;BME280;66062;52.464;16.922;2023-03-03T11:40:50;101099.16;;;0.56;100.00
77110;BME280;66062;52.464;16.922;2023-03-03T11:43:32;101104.84;;;0.45;100.00
77110;BME280;66062;52.464;16.922;2023-03-03T11:46:13;101104.47;;;0.54;100.00
77110;BME280;66062;52.464;16.922;2023-03-03T11:53:53;101090.44;;;0.75;99.94
77110;BME280;66062;52.464;16.922;2023-03-03T11:56:39;101095.88;;;0.91;99.75
77110;BME280;66062;52.464;16.922;2023-03-03T12:01:59;101093.25;;;0.91;98.84
77110;BME280;66062;52.464;16.922;2023-03-03T12:10:31;101090.31;;;0.97;96.76
77110;BME280;66062;52.464;16.922;2023-03-03T12:13:10;101094.13;;;1.10;95.97
77110;BME280;66062;52.464;16.922;2023-03-03T12:16:06;101084.97;;;1.19;94.67
77110;BME280;66062;52.464;16.922;2023-03-03T12:18:52;101085.91;;;1.18;94.09
77110;BME280;66062;52.464;16.922;2023-03-03T12:21:37;101083.88;;;1.04;95.78
77110;BME280;66062;52.464;16.922;2023-03-03T12:32:31;101073.34;;;1.24;94.71
77110;BME280;66062;52.464;16.922;2023-03-03T12:37:53;101072.06;;;1.33;94.81
77110;BME280;66062;52.464;16.922;2023-03-03T12:40:25;101071.00;;;1.37;95.92
77110;BME280;66062;52.464;16.922;2023-03-03T12:43:22;101065.81;;;1.36;95.13
77110;BME280;66062;52.464;16.922;2023-03-03T12:45:59;101070.75;;;1.23;95.27
77110;BME280;66062;52.464;16.922;2023-03-03T12:56:44;101076.75;;;1.26;99.38
77110;BME280;66062;52.464;16.922;2023-03-03T12:59:30;101065.06;;;1.13;97.54
77110;BME280;66062;52.464;16.922;2023-03-03T13:05:31;101076.88;;;1.05;99.05
77110;BME280;66062;52.464;16.922;2023-03-03T13:09:00;101079.50;;;1.05;98.88
77110;BME280;66062;52.464;16.922;2023-03-03T13:17:08;101074.03;;;1.09;98.04
77110;BME280;66062;52.464;16.922;2023-03-03T13:19:42;101067.75;;;1.12;96.81
77110;BME280;66062;52.464;16.922;2023-03-03T13:27:43;101063.25;;;1.15;95.68
77110;BME280;66062;52.464;16.922;2023-03-03T13:30:16;101065.28;;;1.27;94.49
77110;BME280;66062;52.464;16.922;2023-03-03T13:33:07;101060.84;;;1.29;93.30
77110;BME280;66062;52.464;16.922;2023-03-03T13:35:44;101059.06;;;1.30;94.26
77110;BME280;66062;52.464;16.922;2023-03-03T13:38:20;101058.56;;;1.41;93.62
77110;BME280;66062;52.464;16.922;2023-03-03T13:40:59;101048.91;;;1.41;92.73
77110;BME280;66062;52.464;16.922;2023-03-03T13:43:31;101048.91;;;1.41;94.35
77110;BME280;66062;52.464;16.922;2023-03-03T13:48:52;101044.06;;;1.51;92.63
77110;BME280;66062;52.464;16.922;2023-03-03T13:52:23;101040.06;;;1.61;91.82
77110;BME280;66062;52.464;16.922;2023-03-03T14:05:45;101028.56;;;1.45;91.86
77110;BME280;66062;52.464;16.922;2023-03-03T14:13:30;101021.69;;;1.42;90.87
77110;BME280;66062;52.464;16.922;2023-03-03T14:16:07;101017.06;;;1.47;90.80
77110;BME280;66062;52.464;16.922;2023-03-03T14:18:38;101024.31;;;1.42;93.01
77110;BME280;66062;52.464;16.922;2023-03-03T14:21:16;101022.81;;;1.55;91.91
77110;BME280;66062;52.464;16.922;2023-03-03T14:24:01;101018.41;;;1.56;90.62
77110;BME280;66062;52.464;16.922;2023-03-03T14:26:44;101021.38;;;1.48;92.40
77110;BME280;66062;52.464;16.922;2023-03-03T14:31:56;101013.88;;;1.41;94.51
77110;BME280;66062;52.464;16.922;2023-03-03T14:36:57;101006.84;;;1.41;92.53
77110;BME280;66062;52.464;16.922;2023-03-03T14:39:37;101009.69;;;1.37;93.31
77110;BME280;66062;52.464;16.922;2023-03-03T14:42:28;101003.69;;;1.33;92.80
77110;BME280;66062;52.464;16.922;2023-03-03T14:44:55;101002.84;;;1.33;92.75
77110;BME280;66062;52.464;16.922;2023-03-03T14:47:25;101004.44;;;1.37;92.15
77110;BME280;66062;52.464;16.922;2023-03-03T14:49:52;100997.91;;;1.26;92.75
77110;BME280;66062;52.464;16.922;2023-03-03T14:52:32;101000.72;;;1.22;93.44
77110;BME280;66062;52.464;16.922;2023-03-03T14:55:00;101000.22;;;1.14;93.61
77110;BME280;66062;52.464;16.922;2023-03-03T15:02:42;100987.78;;;1.36;91.66
77110;BME280;66062;52.464;16.922;2023-03-03T15:05:22;100989.06;;;1.27;92.14
77110;BME280;66062;52.464;16.922;2023-03-03T15:10:50;100991.91;;;1.23;92.15
77110;BME280;66062;52.464;16.922;2023-03-03T15:18:26;100986.00;;;1.18;93.15
77110;BME280;66062;52.464;16.922;2023-03-03T15:21:04;100987.28;;;1.09;92.82
77110;BME280;66062;52.464;16.922;2023-03-03T15:26:23;100988.28;;;1.07;94.00
77110;BME280;66062;52.464;16.922;2023-03-03T15:29:01;100994.91;;;1.15;93.53
77110;BME280;66062;52.464;16.922;2023-03-03T15:34:36;100975.44;;;1.01;93.08
77110;BME280;66062;52.464;16.922;2023-03-03T15:45:32;100986.00;;;0.99;94.32
77110;BME280;66062;52.464;16.922;2023-03-03T15:48:36;100977.28;;;0.99;94.40
77110;BME280;66062;52.464;16.922;2023-03-03T15:54:35;100967.97;;;0.92;96.41
77110;BME280;66062;52.464;16.922;2023-03-03T16:02:56;100968.91;;;0.91;98.02
77110;BME280;66062;52.464;16.922;2023-03-03T16:08:11;100955.25;;;0.82;98.42
77110;BME280;66062;52.464;16.922;2023-03-03T16:11:08;100962.09;;;0.66;99.02
77110;BME280;66062;52.464;16.922;2023-03-03T16:13:55;100963.97;;;0.83;98.49
77110;BME280;66062;52.464;16.922;2023-03-03T16:16:34;100965.75;;;0.82;97.95